createdAt,value
2017-12-08T00:00:37.656Z,4.02
2017-12-08T00:01:47.402Z,4.07
2017-12-08T00:02:57.182Z,4.04
2017-12-08T00:04:07.164Z,4.15
2017-12-08T00:05:17.186Z,4.11
2017-12-08T00:06:26.942Z,4.22
2017-12-08T00:07:36.654Z,4.12
2017-12-08T00:08:46.468Z,4.22
2017-12-08T00:09:56.202Z,4.21
2017-12-08T00:11:05.934Z,4.15
2017-12-08T00:12:16.175Z,4.22
2017-12-08T00:13:25.830Z,4.18
2017-12-08T00:14:35.986Z,4.1
2017-12-08T00:15:46.239Z,4.02
2017-12-08T00:16:55.974Z,3.94
2017-12-08T00:18:05.509Z,3.92
2017-12-08T00:19:15.274Z,3.96
2017-12-08T00:20:25.395Z,3.94
2017-12-08T00:21:37.087Z,4
2017-12-08T00:22:47.081Z,4.04
2017-12-08T00:23:57.358Z,4.03
2017-12-08T00:25:08.609Z,4.04
2017-12-08T00:26:18.690Z,4.12
2017-12-08T00:27:29.723Z,4.17
2017-12-08T00:28:39.726Z,4.17
2017-12-08T00:29:50.144Z,4.08
2017-12-08T00:31:00.158Z,3.93
2017-12-08T00:32:10.318Z,3.92
2017-12-08T00:33:20.397Z,3.96
2017-12-08T00:34:31.372Z,3.82
2017-12-08T00:35:41.170Z,3.79
2017-12-08T00:36:51.286Z,3.89
2017-12-08T00:38:01.425Z,3.84
2017-12-08T00:39:11.589Z,3.82
2017-12-08T00:40:22.128Z,3.9
2017-12-08T00:41:31.915Z,3.93
2017-12-08T00:42:41.970Z,4.04
2017-12-08T00:43:51.748Z,4.02
2017-12-08T00:45:01.850Z,4.15
2017-12-08T00:46:11.645Z,4.11
2017-12-08T00:47:21.712Z,4.1
2017-12-08T00:48:31.524Z,4.1
2017-12-08T00:49:41.321Z,4.08
2017-12-08T00:50:50.859Z,4.11
2017-12-08T00:52:00.123Z,4.08
2017-12-08T00:53:09.986Z,4.12
2017-12-08T00:54:19.768Z,4.07
2017-12-08T00:55:29.811Z,4.11
2017-12-08T00:56:39.911Z,4.03
2017-12-08T00:57:49.973Z,4.08
2017-12-08T00:59:00.035Z,4
2017-12-08T01:00:10.087Z,3.94
2017-12-08T01:01:19.878Z,3.96
2017-12-08T01:02:29.465Z,3.93
2017-12-08T01:03:39.254Z,3.85
2017-12-08T01:04:49.312Z,3.92
2017-12-08T01:05:58.580Z,3.84
2017-12-08T01:07:08.384Z,3.86
2017-12-08T01:08:18.199Z,4
2017-12-08T01:09:28.247Z,3.92
2017-12-08T01:10:38.109Z,3.94
2017-12-08T01:11:48.150Z,3.96
2017-12-08T01:12:58.207Z,3.81
2017-12-08T01:14:08.243Z,3.86
2017-12-08T01:15:18.290Z,3.82
2017-12-08T01:16:28.353Z,3.81
2017-12-08T01:17:38.137Z,3.85
2017-12-08T01:18:47.924Z,3.89
2017-12-08T01:19:58.032Z,3.96
2017-12-08T01:21:08.074Z,3.86
2017-12-08T01:22:17.611Z,3.89
2017-12-08T01:23:27.403Z,3.85
2017-12-08T01:24:37.185Z,3.84
2017-12-08T01:25:47.045Z,3.9
2017-12-08T01:26:56.581Z,3.9
2017-12-08T01:28:06.114Z,3.9
2017-12-08T01:29:16.166Z,3.97
2017-12-08T01:30:26.742Z,4
2017-12-08T01:31:36.848Z,4.07
2017-12-08T01:32:46.632Z,4.17
2017-12-08T01:33:56.679Z,4.18
2017-12-08T01:35:06.752Z,4.18
2017-12-08T01:36:16.796Z,4.24
2017-12-08T01:37:26.900Z,4.15
2017-12-08T01:38:36.986Z,4.29
2017-12-08T01:39:46.771Z,4.28
2017-12-08T01:40:56.827Z,4.29
2017-12-08T01:42:06.890Z,4.35
2017-12-08T01:43:16.685Z,4.39
2017-12-08T01:44:26.482Z,4.39
2017-12-08T01:45:36.600Z,4.39
2017-12-08T01:46:46.387Z,4.36
2017-12-08T01:47:56.461Z,4.33
2017-12-08T01:49:06.246Z,4.42
2017-12-08T01:50:16.030Z,4.29
2017-12-08T01:51:25.869Z,4.36
2017-12-08T01:52:35.920Z,4.33
2017-12-08T01:53:45.967Z,4.36
2017-12-08T01:54:56.180Z,4.21
2017-12-08T01:56:06.231Z,4.3
2017-12-08T01:57:16.009Z,4.21
2017-12-08T01:58:25.545Z,4.29
2017-12-08T01:59:35.600Z,4.28
2017-12-08T02:00:45.379Z,4.26
2017-12-08T02:01:55.435Z,4.35
2017-12-08T02:03:05.245Z,4.33
2017-12-08T02:04:16.152Z,4.44
2017-12-08T02:05:26.221Z,4.42
2017-12-08T02:06:36.339Z,4.38
2017-12-08T02:07:46.134Z,4.48
2017-12-08T02:08:55.945Z,4.48
2017-12-08T02:10:05.728Z,4.5
2017-12-08T02:11:15.784Z,4.47
2017-12-08T02:12:25.850Z,4.58
2017-12-08T02:13:35.893Z,4.58
2017-12-08T02:14:45.949Z,4.51
2017-12-08T02:15:55.995Z,4.51
2017-12-08T02:17:05.783Z,4.65
2017-12-08T02:18:15.614Z,4.6
2017-12-08T02:19:25.677Z,4.56
2017-12-08T02:20:35.683Z,4.47
2017-12-08T02:21:45.741Z,4.54
2017-12-08T02:22:55.806Z,4.42
2017-12-08T02:24:05.657Z,4.42
2017-12-08T02:25:15.460Z,4.22
2017-12-08T02:26:25.521Z,4.29
2017-12-08T02:27:35.586Z,4.15
2017-12-08T02:28:45.375Z,4.26
2017-12-08T02:29:55.484Z,4.12
2017-12-08T02:31:05.279Z,4.14
2017-12-08T02:32:15.334Z,4.08
2017-12-08T02:33:24.862Z,3.96
2017-12-08T02:34:34.650Z,3.93
2017-12-08T02:35:44.705Z,3.84
2017-12-08T02:36:54.511Z,3.82
2017-12-08T02:38:04.593Z,3.76
2017-12-08T02:39:14.386Z,3.6
2017-12-08T02:40:24.166Z,3.64
2017-12-08T02:41:33.945Z,3.53
2017-12-08T02:42:44.001Z,3.54
2017-12-08T02:43:53.798Z,3.54
2017-12-08T02:45:03.608Z,3.63
2017-12-08T02:46:13.156Z,3.51
2017-12-08T02:47:23.254Z,3.53
2017-12-08T02:48:33.033Z,3.64
2017-12-08T02:49:42.553Z,3.69
2017-12-08T02:50:52.605Z,3.71
2017-12-08T02:52:02.391Z,3.75
2017-12-08T02:53:12.229Z,3.66
2017-12-08T02:54:22.029Z,3.72
2017-12-08T02:55:32.090Z,3.69
2017-12-08T02:56:42.143Z,3.6
2017-12-08T02:57:52.193Z,3.61
2017-12-08T02:59:01.988Z,3.63
2017-12-08T03:00:12.037Z,3.61
2017-12-08T03:01:21.843Z,3.58
2017-12-08T03:02:31.627Z,3.54
2017-12-08T03:34:00.169Z,0.86
2017-12-08T03:35:09.944Z,0.82
2017-12-08T03:36:19.741Z,0.86
2017-12-08T03:37:29.782Z,0.84
2017-12-08T03:38:39.573Z,0.99
2017-12-08T03:39:49.672Z,1
2017-12-08T03:40:59.730Z,1.2
2017-12-08T03:42:09.765Z,1.17
2017-12-08T03:43:19.556Z,1.35
2017-12-08T03:44:29.359Z,1.56
2017-12-08T03:45:39.447Z,1.72
2017-12-08T03:46:49.512Z,1.78
2017-12-08T03:47:59.309Z,1.9
2017-12-08T03:49:08.855Z,1.98
2017-12-08T03:50:18.391Z,2.11
2017-12-08T03:51:28.648Z,2.18
2017-12-08T03:52:38.754Z,2.3
2017-12-08T03:53:48.812Z,2.4
2017-12-08T03:54:58.865Z,2.47
2017-12-08T03:56:08.652Z,2.62
2017-12-08T03:57:18.480Z,2.63
2017-12-08T03:58:28.536Z,2.63
2017-12-08T03:59:38.331Z,2.7
2017-12-08T04:00:48.135Z,2.72
2017-12-08T04:01:58.174Z,2.7
2017-12-08T04:03:08.022Z,2.78
2017-12-08T04:04:17.805Z,2.72
2017-12-08T04:05:27.594Z,2.72
2017-12-08T04:06:37.449Z,2.78
2017-12-08T04:07:47.507Z,2.83
2017-12-08T04:08:57.340Z,2.93
2017-12-08T04:10:07.123Z,2.91
2017-12-08T04:11:16.914Z,2.93
2017-12-08T04:12:26.718Z,2.91
2017-12-08T04:13:36.831Z,2.91
2017-12-08T04:14:46.418Z,2.95
2017-12-08T04:15:56.204Z,3.02
2017-12-08T04:17:06.248Z,3.03
2017-12-08T04:18:16.280Z,3.08
2017-12-08T04:19:26.337Z,3.11
2017-12-08T04:20:35.857Z,3.09
2017-12-08T04:21:45.118Z,3.09
2017-12-08T04:22:55.164Z,3.05
2017-12-08T04:24:05.205Z,3.09
2017-12-08T04:25:15.260Z,3.17
2017-12-08T04:26:25.053Z,3.19
2017-12-08T04:27:34.852Z,3.29
2017-12-08T04:28:44.949Z,3.27
2017-12-08T04:29:54.750Z,3.34
2017-12-08T04:31:04.805Z,3.24
2017-12-08T04:32:14.585Z,3.43
2017-12-08T04:33:24.366Z,3.3
2017-12-08T04:34:34.419Z,3.39
2017-12-08T04:35:44.215Z,3.46
2017-12-08T04:36:53.748Z,3.43
2017-12-08T04:38:03.805Z,3.56
2017-12-08T04:39:13.841Z,3.48
2017-12-08T04:40:23.892Z,3.56
2017-12-08T04:41:33.683Z,3.53
2017-12-08T04:42:43.466Z,3.51
2017-12-08T04:43:53.577Z,3.64
2017-12-08T04:45:03.629Z,3.6
2017-12-08T04:46:13.681Z,3.58
2017-12-08T04:47:23.469Z,3.49
2017-12-08T04:48:33.532Z,3.54
2017-12-08T04:49:43.338Z,3.53
2017-12-08T04:50:53.373Z,3.57
2017-12-08T04:52:03.419Z,3.56
2017-12-08T04:53:13.213Z,3.46
2017-12-08T04:54:23.258Z,3.49
2017-12-08T04:55:33.301Z,3.53
2017-12-08T04:56:42.824Z,3.46
2017-12-08T04:57:52.924Z,3.39
2017-12-08T04:59:02.713Z,3.35
2017-12-08T05:00:12.501Z,3.26
2017-12-08T05:01:22.549Z,3.34
2017-12-08T05:02:32.626Z,3.3
2017-12-08T05:03:42.682Z,3.34
2017-12-08T05:04:52.466Z,3.39
2017-12-08T05:06:02.247Z,3.32
2017-12-08T05:07:12.037Z,3.32
2017-12-08T05:08:22.098Z,3.34
2017-12-08T05:09:32.147Z,3.35
2017-12-08T05:10:41.814Z,3.34
2017-12-08T05:11:51.596Z,3.29
2017-12-08T05:13:02.503Z,3.13
2017-12-08T05:14:12.568Z,3.16
2017-12-08T05:15:22.354Z,3.19
2017-12-08T05:16:32.403Z,3.17
2017-12-08T05:17:42.443Z,3.17
2017-12-08T05:18:52.505Z,3.21
2017-12-08T05:20:02.558Z,3.13
2017-12-08T05:21:12.091Z,3.21
2017-12-08T05:22:21.880Z,3.24
2017-12-08T05:23:31.922Z,3.26
2017-12-08T05:24:41.448Z,3.35
2017-12-08T05:25:51.486Z,3.35
2017-12-08T05:27:01.012Z,3.39
2017-12-08T05:28:10.260Z,3.3
2017-12-08T05:29:20.312Z,3.4
2017-12-08T05:30:30.156Z,3.46
2017-12-08T05:31:40.261Z,3.45
2017-12-08T05:32:50.056Z,3.51
2017-12-08T05:33:59.841Z,3.46
2017-12-08T05:35:09.959Z,3.49
2017-12-08T05:36:20.018Z,3.48
2017-12-08T05:37:29.550Z,3.42
2017-12-08T05:38:39.676Z,3.4
2017-12-08T05:39:49.723Z,3.3
2017-12-08T05:40:59.514Z,3.35
2017-12-08T05:42:09.425Z,3.26
2017-12-08T05:43:19.478Z,3.43
2017-12-08T05:44:29.328Z,3.27
2017-12-08T05:45:39.379Z,3.32
2017-12-08T05:46:48.643Z,3.39
2017-12-08T05:47:58.428Z,3.45
2017-12-08T05:49:08.482Z,3.4
2017-12-08T05:50:18.546Z,3.53
2017-12-08T05:51:28.334Z,3.49
2017-12-08T05:52:38.386Z,3.64
2017-12-08T05:53:48.481Z,3.75
2017-12-08T05:54:58.540Z,3.79
2017-12-08T05:56:08.326Z,3.82
2017-12-08T05:57:18.113Z,3.89
2017-12-08T05:58:27.900Z,3.92
2017-12-08T05:59:38.096Z,3.85
2017-12-08T06:00:47.896Z,3.9
2017-12-08T06:01:57.956Z,3.92
2017-12-08T06:03:08.007Z,4.02
2017-12-08T06:04:17.528Z,4.08
2017-12-08T06:05:27.360Z,4.1
2017-12-08T06:06:37.413Z,4.12
2017-12-08T06:07:47.206Z,4.21
2017-12-08T06:08:57.272Z,4.15
2017-12-08T06:10:07.313Z,4.2
2017-12-08T06:11:16.856Z,4.12
2017-12-08T06:12:26.910Z,4.04
2017-12-08T06:13:36.953Z,4.07
2017-12-08T06:14:46.479Z,3.96
2017-12-08T06:15:56.010Z,3.92
2017-12-08T06:17:05.836Z,3.93
2017-12-08T06:18:15.883Z,3.93
2017-12-08T06:19:26.126Z,3.85
2017-12-08T06:20:36.179Z,3.89
2017-12-08T06:21:45.709Z,3.93
2017-12-08T06:22:55.536Z,3.94
2017-12-08T06:24:05.332Z,3.97
2017-12-08T06:25:15.403Z,3.96
2017-12-08T06:26:25.506Z,4.07
2017-12-08T06:27:35.053Z,4.14
2017-12-08T06:28:44.896Z,4.17
2017-12-08T06:29:54.953Z,4.21
2017-12-08T06:31:04.747Z,4.32
2017-12-08T06:32:14.811Z,4.2
2017-12-08T06:33:24.603Z,4.11
2017-12-08T06:34:34.440Z,4.18
2017-12-08T06:35:44.217Z,4.15
2017-12-08T06:36:54.251Z,4.17
2017-12-08T06:38:04.296Z,4.21
2017-12-08T06:39:14.361Z,4.14
2017-12-08T06:40:24.147Z,4.18
2017-12-08T06:41:34.211Z,4.28
2017-12-08T06:42:44.016Z,4.28
2017-12-08T06:43:53.808Z,4.18
2017-12-08T06:45:03.612Z,4.24
2017-12-08T06:46:13.408Z,4.32
2017-12-08T06:47:23.448Z,4.33
2017-12-08T06:48:33.044Z,4.39
2017-12-08T06:49:43.097Z,4.35
2017-12-08T06:50:53.133Z,4.4
2017-12-08T06:52:02.712Z,4.38
2017-12-08T06:53:12.762Z,4.42
2017-12-08T06:54:22.824Z,4.42
2017-12-08T06:55:32.601Z,4.39
2017-12-08T06:56:42.383Z,4.47
2017-12-08T06:57:52.498Z,4.47
2017-12-08T06:59:02.294Z,4.56
2017-12-08T07:00:13.403Z,4.44
2017-12-08T07:01:23.180Z,4.54
2017-12-08T07:02:32.980Z,4.53
2017-12-08T07:03:42.762Z,4.57
2017-12-08T07:04:52.571Z,4.57
2017-12-08T07:06:02.096Z,4.6
2017-12-08T07:07:12.141Z,4.66
2017-12-08T07:08:21.921Z,4.71
2017-12-08T07:09:31.723Z,4.71
2017-12-08T07:10:41.775Z,4.58
2017-12-08T07:11:51.827Z,4.75
2017-12-08T07:13:01.877Z,4.78
2017-12-08T07:14:11.939Z,4.65
2017-12-08T07:15:21.728Z,4.72
2017-12-08T07:16:31.504Z,4.74
2017-12-08T07:17:41.558Z,4.79
2017-12-08T07:18:51.613Z,4.74
2017-12-08T07:20:01.661Z,4.75
2017-12-08T07:21:11.245Z,4.79
2017-12-08T07:22:21.026Z,4.9
2017-12-08T07:23:31.173Z,4.94
2017-12-08T07:24:40.693Z,4.87
2017-12-08T07:25:50.751Z,4.95
2017-12-08T07:27:00.862Z,4.95
2017-12-08T07:28:10.900Z,5.12
2017-12-08T07:29:20.420Z,5.03
2017-12-08T07:30:31.911Z,5.2
2017-12-08T07:31:41.707Z,5.15
2017-12-08T07:32:51.820Z,5.23
2017-12-08T07:34:01.349Z,5.27
2017-12-08T07:35:11.144Z,5.26
2017-12-08T07:36:21.197Z,5.34
2017-12-08T07:37:30.992Z,5.37
2017-12-08T07:38:41.101Z,5.39
2017-12-08T07:39:50.897Z,5.28
2017-12-08T07:41:00.946Z,5.3
2017-12-08T07:42:11.025Z,5.18
2017-12-08T07:43:21.095Z,5.15
2017-12-08T07:44:31.216Z,5.18
2017-12-08T07:45:41.009Z,5.06
2017-12-08T07:46:51.103Z,5.03
2017-12-08T07:48:00.688Z,5.05
2017-12-08T07:49:10.753Z,4.97
2017-12-08T07:50:20.274Z,4.98
2017-12-08T07:51:30.062Z,4.97
2017-12-08T07:52:39.917Z,4.95
2017-12-08T07:53:49.474Z,4.98
2017-12-08T07:54:59.272Z,5.13
2017-12-08T07:56:09.317Z,5.03
2017-12-08T07:57:19.379Z,5.05
2017-12-08T07:58:29.215Z,5.03
2017-12-08T07:59:38.740Z,4.97
2017-12-08T08:00:48.810Z,4.98
2017-12-08T08:01:58.866Z,5
2017-12-08T08:03:08.936Z,4.98
2017-12-08T08:04:19.007Z,5.03
2017-12-08T08:05:28.847Z,5.05
2017-12-08T08:06:38.643Z,5.03
2017-12-08T08:07:48.436Z,5.06
2017-12-08T08:08:58.500Z,4.98
2017-12-08T08:10:08.038Z,5.05
2017-12-08T08:11:18.104Z,5.06
2017-12-08T08:12:27.897Z,5.05
2017-12-08T08:13:38.787Z,5.2
2017-12-08T08:14:48.321Z,5.18
2017-12-08T08:15:58.556Z,5.3
2017-12-08T08:17:08.369Z,5.31
2017-12-08T08:18:18.421Z,5.34
2017-12-08T08:19:28.484Z,5.39
2017-12-08T08:20:38.286Z,5.42
2017-12-08T08:21:48.075Z,5.42
2017-12-08T08:22:58.112Z,5.52
2017-12-08T08:24:08.155Z,5.55
2017-12-08T08:25:18.263Z,5.6
2017-12-08T08:26:28.057Z,5.59
2017-12-08T08:27:38.112Z,5.59
2017-12-08T08:28:48.205Z,5.59
2017-12-08T08:29:58.090Z,5.52
2017-12-08T08:31:07.880Z,5.54
2017-12-08T08:32:17.671Z,5.49
2017-12-08T08:33:27.478Z,5.46
2017-12-08T08:34:37.263Z,5.54
2017-12-08T08:35:47.071Z,5.62
2017-12-08T08:36:57.151Z,5.7
2017-12-08T08:38:07.222Z,5.72
2017-12-08T08:39:17.270Z,5.8
2017-12-08T08:40:27.419Z,5.8
2017-12-08T08:41:37.209Z,5.92
2017-12-08T08:42:46.736Z,5.8
2017-12-08T08:43:56.791Z,5.99
2017-12-08T08:45:06.854Z,6.02
2017-12-08T08:46:16.655Z,6.17
2017-12-08T08:47:26.752Z,6.09
2017-12-08T08:48:36.811Z,6.34
2017-12-08T08:49:48.007Z,6.34
2017-12-08T08:50:57.807Z,6.34
2017-12-08T08:52:09.410Z,6.37
2017-12-08T08:53:20.382Z,6.31
2017-12-08T08:54:30.495Z,6.28
2017-12-08T08:55:40.302Z,6.31
2017-12-08T08:56:50.360Z,6.31
2017-12-08T08:58:00.425Z,6.31
2017-12-08T08:59:11.323Z,6.36
2017-12-08T09:00:21.864Z,6.31
2017-12-08T09:01:31.959Z,6.34
2017-12-08T09:02:41.747Z,6.34
2017-12-08T09:03:51.549Z,6.33
2017-12-08T09:05:01.649Z,6.42
2017-12-08T09:06:11.462Z,6.51
2017-12-08T09:07:21.010Z,6.61
2017-12-08T09:08:31.125Z,6.67
2017-12-08T09:09:42.095Z,6.83
2017-12-08T09:10:51.890Z,6.93
2017-12-08T09:12:01.746Z,6.94
2017-12-08T09:13:11.547Z,6.95
2017-12-08T09:14:21.341Z,7.03
2017-12-08T09:15:31.392Z,7.15
2017-12-08T09:16:41.451Z,7.13
2017-12-08T09:17:51.266Z,7.13
2017-12-08T09:19:00.796Z,7.03
2017-12-08T09:20:10.072Z,7.05
2017-12-08T09:21:20.141Z,7.01
2017-12-08T09:22:30.184Z,7
2017-12-08T09:23:40.279Z,6.97
2017-12-08T09:24:50.360Z,6.97
2017-12-08T09:26:00.224Z,6.94
2017-12-08T09:27:10.016Z,6.97
2017-12-08T09:28:20.079Z,6.97
2017-12-08T09:29:30.165Z,6.85
2017-12-08T09:30:40.007Z,6.93
2017-12-08T09:31:49.812Z,6.8
2017-12-08T09:32:58.822Z,6.82
2017-12-08T09:34:09.954Z,6.83
2017-12-08T09:35:19.811Z,6.73
2017-12-08T09:36:31.279Z,6.67
2017-12-08T09:37:41.340Z,6.57
2017-12-08T09:38:51.441Z,6.57
2017-12-08T09:40:01.233Z,6.68
2017-12-08T09:41:11.349Z,6.78
2017-12-08T09:42:21.147Z,6.93
2017-12-08T09:43:30.934Z,7
2017-12-08T09:44:40.994Z,7.12
2017-12-08T09:45:50.801Z,7.11
2017-12-08T09:47:00.860Z,7.29
2017-12-08T09:48:10.920Z,7.31
2017-12-08T09:49:20.990Z,7.49
2017-12-08T09:50:31.090Z,7.61
2017-12-08T09:51:40.880Z,7.73
2017-12-08T09:52:50.742Z,7.73
2017-12-08T09:54:00.825Z,7.85
2017-12-08T09:55:10.357Z,7.86
2017-12-08T09:56:20.403Z,7.89
2017-12-08T09:57:30.190Z,7.98
2017-12-08T09:58:40.235Z,8.04
2017-12-08T09:59:49.836Z,7.99
2017-12-08T10:00:59.630Z,8.09
2017-12-08T10:02:09.472Z,7.96
2017-12-08T10:03:19.572Z,8.01
2017-12-08T10:04:29.730Z,7.98
2017-12-08T10:05:39.786Z,7.85
2017-12-08T10:06:49.896Z,7.73
2017-12-08T10:07:59.959Z,7.61
2017-12-08T10:09:10.003Z,7.49
2017-12-08T10:10:20.104Z,7.4
2017-12-08T10:11:29.889Z,7.23
2017-12-08T10:12:39.818Z,7.18
2017-12-08T10:13:49.615Z,7.21
2017-12-08T10:14:59.680Z,7.18
2017-12-08T10:16:09.798Z,7.04
2017-12-08T10:17:19.865Z,7.03
2017-12-08T10:18:30.093Z,7.04
2017-12-08T10:19:40.171Z,7.03
2017-12-08T10:20:50.229Z,7.08
2017-12-08T10:22:00.055Z,7.04
2017-12-08T10:23:09.848Z,7.12
2017-12-08T10:24:19.653Z,7.16
2017-12-08T10:25:29.462Z,7.09
2017-12-08T10:26:39.528Z,7.21
2017-12-08T10:27:49.592Z,7.22
2017-12-08T10:28:59.411Z,7.23
2017-12-08T10:30:09.206Z,7.29
2017-12-08T10:31:19.022Z,7.31
2017-12-08T10:32:30.242Z,7.39
2017-12-08T10:33:39.779Z,7.54
2017-12-08T10:34:49.571Z,7.49
2017-12-08T10:36:00.727Z,7.52
2017-12-08T10:37:10.778Z,7.61
2017-12-08T10:38:21.367Z,7.51
2017-12-08T10:39:31.422Z,7.59
2017-12-08T10:40:42.621Z,7.61
2017-12-08T10:41:52.749Z,7.67
2017-12-08T10:43:02.550Z,7.51
2017-12-08T10:44:12.355Z,7.41
2017-12-08T10:45:22.168Z,7.41
2017-12-08T10:46:31.690Z,7.33
2017-12-08T10:47:41.229Z,7.34
2017-12-08T10:48:51.295Z,7.21
2017-12-08T10:50:01.354Z,7.23
2017-12-08T10:51:11.447Z,7.26
2017-12-08T10:52:21.554Z,7.19
2017-12-08T10:53:31.354Z,7.11
2017-12-08T10:54:41.275Z,7.16
2017-12-08T10:55:51.399Z,7.12
2017-12-08T10:57:01.213Z,7.11
2017-12-08T10:58:11.272Z,7.11
2017-12-08T10:59:21.343Z,7.04
2017-12-08T11:00:31.150Z,7.01
2017-12-08T11:01:41.251Z,6.82
2017-12-08T11:02:51.100Z,6.79
2017-12-08T11:04:00.891Z,6.78
2017-12-08T11:05:10.749Z,6.65
2017-12-08T11:06:20.569Z,6.64
2017-12-08T11:07:30.621Z,6.55
2017-12-08T11:08:40.672Z,6.57
2017-12-08T11:09:50.730Z,6.52
2017-12-08T11:11:00.786Z,6.58
2017-12-08T11:12:10.320Z,6.58
2017-12-08T11:13:20.382Z,6.61
2017-12-08T11:14:30.441Z,6.57
2017-12-08T11:15:40.506Z,6.61
2017-12-08T11:16:50.557Z,6.6
2017-12-08T11:18:00.364Z,6.42
2017-12-08T11:19:10.425Z,6.42
2017-12-08T11:20:20.264Z,6.44
2017-12-08T11:21:30.054Z,6.34
2017-12-08T11:22:40.114Z,6.31
2017-12-08T11:23:51.251Z,6.37
2017-12-08T11:25:01.322Z,6.39
2017-12-08T11:26:11.398Z,6.33
2017-12-08T11:27:21.494Z,6.31
2017-12-08T11:28:31.356Z,6.28
2017-12-08T11:29:41.880Z,6.2
2017-12-08T11:30:51.698Z,6.24
2017-12-08T11:32:01.761Z,6.14
2017-12-08T11:33:11.600Z,6.18
2017-12-08T11:34:21.413Z,6.14
2017-12-08T11:35:31.566Z,6.18
2017-12-08T11:36:41.659Z,6.13
2017-12-08T11:37:51.770Z,6.14
2017-12-08T11:39:01.887Z,6.07
2017-12-08T11:40:12.045Z,6.13
2017-12-08T11:41:22.189Z,6.05
2017-12-08T11:42:32.038Z,6.06
2017-12-08T11:43:42.114Z,6.02
2017-12-08T11:44:51.928Z,5.99
2017-12-08T11:46:02.009Z,5.85
2017-12-08T11:47:12.080Z,5.89
2017-12-08T11:48:21.916Z,5.99
2017-12-08T11:49:32.032Z,5.88
2017-12-08T11:50:41.834Z,6.06
2017-12-08T11:51:51.643Z,6.2
2017-12-08T11:53:01.706Z,6.09
2017-12-08T11:54:11.260Z,6.31
2017-12-08T11:55:21.347Z,6.25
2017-12-08T11:56:31.181Z,6.34
2017-12-08T11:57:41.326Z,6.43
2017-12-08T11:58:51.416Z,6.33
2017-12-08T12:00:01.473Z,6.36
2017-12-08T12:01:11.500Z,6.39
2017-12-08T12:02:21.296Z,6.33
2017-12-08T12:03:31.432Z,6.28
2017-12-08T12:04:41.489Z,6.29
2017-12-08T12:05:51.282Z,6.24
2017-12-08T12:07:01.341Z,6.24
2017-12-08T12:08:11.414Z,6.31
2017-12-08T12:09:21.531Z,6.25
2017-12-08T12:10:31.445Z,6.36
2017-12-08T12:11:41.283Z,6.26
2017-12-08T12:12:51.537Z,6.26
2017-12-08T12:14:01.724Z,6.2
2017-12-08T12:15:11.812Z,6.14
2017-12-08T12:16:21.900Z,6.18
2017-12-08T12:17:31.951Z,6.15
2017-12-08T12:18:42.031Z,6.17
2017-12-08T12:19:52.121Z,6.15
2017-12-08T12:21:02.205Z,6.09
2017-12-08T12:22:12.248Z,6.1
2017-12-08T12:23:22.077Z,6.25
2017-12-08T12:24:31.874Z,6.25
2017-12-08T12:25:41.937Z,6.31
2017-12-08T12:26:51.778Z,6.34
2017-12-08T12:28:01.600Z,6.39
2017-12-08T12:29:11.952Z,6.4
2017-12-08T12:30:22.020Z,6.34
2017-12-08T12:31:31.842Z,6.36
2017-12-08T12:32:41.969Z,6.36
2017-12-08T12:33:52.038Z,6.42
2017-12-08T12:35:02.075Z,6.39
2017-12-08T12:36:11.859Z,6.34
2017-12-08T12:37:21.945Z,6.4
2017-12-08T12:38:32.072Z,6.31
2017-12-08T12:39:42.128Z,6.36
2017-12-08T12:40:52.235Z,6.4
2017-12-08T12:42:02.316Z,6.46
2017-12-08T12:43:11.875Z,6.36
2017-12-08T12:44:22.910Z,6.34
2017-12-08T12:45:32.737Z,6.49
2017-12-08T12:46:42.804Z,6.39
2017-12-08T12:47:52.065Z,6.47
2017-12-08T12:49:02.133Z,6.51
2017-12-08T12:50:11.997Z,6.37
2017-12-08T12:51:22.050Z,6.44
2017-12-08T12:52:31.668Z,6.44
2017-12-08T12:53:41.725Z,6.34
2017-12-08T12:54:51.523Z,6.33
2017-12-08T12:56:01.342Z,6.42
2017-12-08T12:57:11.462Z,6.39
2017-12-08T12:58:21.600Z,6.37
2017-12-08T12:59:32.065Z,6.4
2017-12-08T13:00:41.866Z,6.29
2017-12-08T13:01:52.791Z,6.29
2017-12-08T13:03:02.619Z,6.31
2017-12-08T13:04:12.745Z,6.26
2017-12-08T13:05:22.329Z,6.18
2017-12-08T13:06:32.130Z,6.21
2017-12-08T13:07:42.183Z,6.2
2017-12-08T13:08:52.257Z,6.18
2017-12-08T13:10:02.167Z,6.17
2017-12-08T13:11:13.023Z,6.29
2017-12-08T13:12:23.118Z,6.14
2017-12-08T13:13:34.280Z,6.1
2017-12-08T13:14:44.116Z,6.15
2017-12-08T13:15:54.207Z,6.07
2017-12-08T13:17:04.307Z,6.15
2017-12-08T13:18:14.398Z,6.1
2017-12-08T13:19:25.112Z,6.1
2017-12-08T13:20:35.178Z,6.2
2017-12-08T13:21:45.301Z,6.1
2017-12-08T13:22:55.715Z,6.1
2017-12-08T13:24:05.545Z,6.05
2017-12-08T13:25:15.336Z,6.1
2017-12-08T13:26:25.390Z,6.14
2017-12-08T13:27:35.522Z,6.15
2017-12-08T13:28:45.322Z,6.02
2017-12-08T13:29:54.861Z,6.06
2017-12-08T13:31:04.946Z,6.07
2017-12-08T13:32:14.776Z,6.15
2017-12-08T13:33:24.625Z,5.96
2017-12-08T13:34:35.138Z,6.07
2017-12-08T13:35:45.218Z,6.05
2017-12-08T13:36:55.284Z,5.96
2017-12-08T13:38:04.866Z,5.98
2017-12-08T13:39:14.668Z,5.96
2017-12-08T13:40:24.529Z,5.88
2017-12-08T13:41:34.077Z,6
2017-12-08T13:42:43.651Z,5.91
2017-12-08T13:43:53.734Z,5.91
2017-12-08T13:45:03.697Z,5.91
2017-12-08T13:46:13.535Z,5.92
2017-12-08T13:47:23.348Z,5.96
2017-12-08T13:48:33.162Z,5.89
2017-12-08T13:49:43.224Z,5.95
2017-12-08T13:50:53.374Z,5.88
2017-12-08T13:52:03.432Z,5.84
2017-12-08T13:53:12.972Z,5.82
2017-12-08T13:54:23.043Z,5.89
2017-12-08T13:55:33.111Z,5.89
2017-12-08T13:56:42.947Z,5.95
2017-12-08T13:57:52.217Z,5.99
2017-12-08T13:59:02.039Z,5.85
2017-12-08T14:00:11.583Z,5.88
2017-12-08T14:01:21.741Z,5.87
2017-12-08T14:02:31.557Z,5.77
2017-12-08T14:03:41.362Z,5.78
2017-12-08T14:04:51.458Z,5.66
2017-12-08T14:06:01.264Z,5.6
2017-12-08T14:07:11.337Z,5.62
2017-12-08T14:08:21.131Z,5.6
2017-12-08T14:09:31.402Z,5.52
2017-12-08T14:10:41.581Z,5.57
2017-12-08T14:11:51.453Z,5.59
2017-12-08T14:13:01.000Z,5.52
2017-12-08T14:14:11.143Z,5.49
2017-12-08T14:15:21.285Z,5.46
2017-12-08T14:16:31.853Z,5.46
2017-12-08T14:17:42.224Z,5.46
2017-12-08T14:18:53.162Z,5.39
2017-12-08T14:20:02.967Z,5.52
2017-12-08T14:21:13.211Z,5.42
2017-12-08T14:22:23.292Z,5.48
2017-12-08T14:23:33.367Z,5.51
2017-12-08T14:24:43.454Z,5.49
2017-12-08T14:25:53.267Z,5.48
2017-12-08T14:27:03.373Z,5.48
2017-12-08T14:28:13.451Z,5.46
2017-12-08T14:29:23.528Z,5.48
2017-12-08T14:30:33.742Z,5.46
2017-12-08T14:31:43.806Z,5.49
2017-12-08T14:32:53.635Z,5.57
2017-12-08T14:34:03.719Z,5.52
2017-12-08T14:35:13.785Z,5.49
2017-12-08T14:36:23.358Z,5.57
2017-12-08T14:37:33.422Z,5.49
2017-12-08T14:38:44.112Z,5.46
2017-12-08T14:39:54.186Z,5.49
2017-12-08T14:41:04.253Z,5.49
2017-12-08T14:42:14.331Z,5.51
2017-12-08T14:43:23.889Z,5.49
2017-12-08T14:44:34.758Z,5.51
2017-12-08T14:45:44.851Z,5.48
2017-12-08T14:46:55.026Z,5.49
2017-12-08T14:48:04.558Z,5.45
2017-12-08T14:49:14.419Z,5.49
2017-12-08T14:50:24.215Z,5.39
2017-12-08T14:51:34.300Z,5.44
2017-12-08T14:52:44.397Z,5.48
2017-12-08T14:53:55.157Z,5.37
2017-12-08T14:55:05.243Z,5.31
2017-12-08T14:56:15.316Z,5.39
2017-12-08T14:57:25.374Z,5.37
2017-12-08T14:58:34.676Z,5.41
2017-12-08T14:59:44.748Z,5.39
2017-12-08T15:00:55.199Z,5.42
2017-12-08T15:02:05.278Z,5.44
2017-12-08T15:03:15.355Z,5.51
2017-12-08T15:04:25.181Z,5.49
2017-12-08T15:05:35.461Z,5.54
2017-12-08T15:06:45.540Z,5.52
2017-12-08T15:07:55.611Z,5.54
2017-12-08T15:09:05.716Z,5.52
2017-12-08T15:10:15.813Z,5.59
2017-12-08T15:11:25.371Z,5.57
2017-12-08T15:12:35.450Z,5.52
2017-12-08T15:13:45.516Z,5.54
2017-12-08T15:14:54.803Z,5.59
2017-12-08T15:16:04.939Z,5.51
2017-12-08T15:17:14.240Z,5.57
2017-12-08T15:18:24.350Z,5.44
2017-12-08T15:19:34.172Z,5.62
2017-12-08T15:20:44.229Z,5.59
2017-12-08T15:21:54.306Z,5.6
2017-12-08T15:23:04.139Z,5.62
2017-12-08T15:24:14.284Z,5.67
2017-12-08T15:25:24.448Z,5.55
2017-12-08T15:26:34.525Z,5.66
2017-12-08T15:27:44.598Z,5.67
2017-12-08T15:28:54.662Z,5.7
2017-12-08T15:30:04.787Z,5.72
2017-12-08T15:31:14.626Z,5.77
2017-12-08T15:32:24.697Z,5.77
2017-12-08T15:33:34.802Z,5.78
2017-12-08T15:34:44.877Z,5.7
2017-12-08T15:35:54.744Z,5.78
2017-12-08T15:37:04.870Z,5.81
2017-12-08T15:38:14.991Z,5.78
2017-12-08T15:39:25.092Z,5.75
2017-12-08T15:40:35.206Z,5.78
2017-12-08T15:41:45.337Z,5.84
2017-12-08T15:42:55.414Z,5.91
2017-12-08T15:44:05.521Z,5.92
2017-12-08T15:45:15.388Z,5.88
2017-12-08T15:46:25.455Z,5.89
2017-12-08T15:47:35.581Z,5.99
2017-12-08T15:48:45.405Z,5.98
2017-12-08T15:49:56.004Z,5.96
2017-12-08T15:51:07.242Z,6.06
2017-12-08T15:52:17.032Z,6.02
2017-12-08T15:53:26.888Z,6.05
2017-12-08T15:54:36.471Z,5.99
2017-12-08T15:55:46.555Z,6.05
2017-12-08T15:56:57.374Z,6.03
2017-12-08T15:58:07.468Z,5.98
2017-12-08T15:59:17.578Z,5.98
2017-12-08T16:00:27.151Z,5.98
2017-12-08T16:01:36.726Z,5.98
2017-12-08T16:02:46.797Z,6.03
2017-12-08T16:03:56.884Z,6.02
2017-12-08T16:05:07.117Z,5.98